sensor_id;sensor_type;location;lat;lon;timestamp;P1;durP1;ratioP1;P2;durP2;ratioP2
1467;SDS011;727;48.892;9.544;2023-07-20T00:02:02;3.33;;;2.10;;
1467;SDS011;727;48.892;9.544;2023-07-20T00:04:30;3.50;;;1.97;;
1467;SDS011;727;48.892;9.544;2023-07-20T00:06:57;2.90;;;2.60;;
1467;SDS011;727;48.892;9.544;2023-07-20T00:09:24;3.20;;;2.90;;
1467;SDS011;727;48.892;9.544;2023-07-20T00:11:51;2.10;;;1.93;;
1467;SDS011;727;48.892;9.544;2023-07-20T00:14:20;3.83;;;2.63;;
1467;SDS011;727;48.892;9.544;2023-07-20T00:16:47;4.20;;;2.50;;
1467;SDS011;727;48.892;9.544;2023-07-20T00:19:20;2.50;;;2.10;;
1467;SDS011;727;48.892;9.544;2023-07-20T00:21:48;6.13;;;2.60;;
1467;SDS011;727;48.892;9.544;2023-07-20T00:24:15;2.50;;;2.30;;
1467;SDS011;727;48.892;9.544;2023-07-20T00:26:41;3.00;;;2.30;;
1467;SDS011;727;48.892;9.544;2023-07-20T00:29:08;3.40;;;2.67;;
1467;SDS011;727;48.892;9.544;2023-07-20T00:31:37;2.93;;;2.70;;
1467;SDS011;727;48.892;9.544;2023-07-20T00:34:03;2.30;;;2.10;;
1467;SDS011;727;48.892;9.544;2023-07-20T00:36:31;4.00;;;2.77;;
1467;SDS011;727;48.892;9.544;2023-07-20T00:38:58;2.97;;;2.60;;
1467;SDS011;727;48.892;9.544;2023-07-20T00:41:25;2.50;;;2.30;;
1467;SDS011;727;48.892;9.544;2023-07-20T00:43:54;3.50;;;2.70;;
1467;SDS011;727;48.892;9.544;2023-07-20T00:46:21;4.13;;;2.43;;
1467;SDS011;727;48.892;9.544;2023-07-20T00:48:51;2.90;;;2.60;;
1467;SDS011;727;48.892;9.544;2023-07-20T00:51:20;2.73;;;2.53;;
1467;SDS011;727;48.892;9.544;2023-07-20T00:53:47;2.53;;;2.33;;
1467;SDS011;727;48.892;9.544;2023-07-20T00:56:14;5.90;;;3.30;;
1467;SDS011;727;48.892;9.544;2023-07-20T00:58:41;3.00;;;2.70;;
1467;SDS011;727;48.892;9.544;2023-07-20T01:01:08;4.30;;;2.80;;
1467;SDS011;727;48.892;9.544;2023-07-20T01:03:35;5.87;;;3.73;;
1467;SDS011;727;48.892;9.544;2023-07-20T01:06:05;3.63;;;3.03;;
1467;SDS011;727;48.892;9.544;2023-07-20T01:08:46;2.97;;;2.30;;
1467;SDS011;727;48.892;9.544;2023-07-20T01:11:23;2.80;;;2.50;;
1467;SDS011;727;48.892;9.544;2023-07-20T01:13:57;7.93;;;3.07;;
1467;SDS011;727;48.892;9.544;2023-07-20T01:16:24;2.50;;;2.30;;
1467;SDS011;727;48.892;9.544;2023-07-20T01:18:52;4.00;;;2.43;;
1467;SDS011;727;48.892;9.544;2023-07-20T01:21:23;2.93;;;2.67;;
1467;SDS011;727;48.892;9.544;2023-07-20T01:24:14;3.40;;;2.60;;
1467;SDS011;727;48.892;9.544;2023-07-20T01:27:13;3.00;;;2.70;;
1467;SDS011;727;48.892;9.544;2023-07-20T01:30:27;8.03;;;2.83;;
1467;SDS011;727;48.892;9.544;2023-07-20T01:33:06;4.28;;;2.60;;
1467;SDS011;727;48.892;9.544;2023-07-20T01:35:35;5.30;;;3.17;;
1467;SDS011;727;48.892;9.544;2023-07-20T01:38:02;11.83;;;2.90;;
1467;SDS011;727;48.892;9.544;2023-07-20T01:40:30;7.17;;;3.13;;
1467;SDS011;727;48.892;9.544;2023-07-20T01:42:57;3.23;;;2.57;;
1467;SDS011;727;48.892;9.544;2023-07-20T01:45:24;3.13;;;2.47;;
1467;SDS011;727;48.892;9.544;2023-07-20T01:47:51;2.77;;;2.50;;
1467;SDS011;727;48.892;9.544;2023-07-20T01:50:20;4.70;;;2.73;;
1467;SDS011;727;48.892;9.544;2023-07-20T01:52:46;3.67;;;2.13;;
1467;SDS011;727;48.892;9.544;2023-07-20T01:55:13;3.67;;;2.97;;
1467;SDS011;727;48.892;9.544;2023-07-20T01:57:41;3.60;;;3.00;;
1467;SDS011;727;48.892;9.544;2023-07-20T02:00:08;4.73;;;2.50;;
1467;SDS011;727;48.892;9.544;2023-07-20T02:02:36;4.60;;;2.73;;
1467;SDS011;727;48.892;9.544;2023-07-20T02:05:03;3.20;;;2.90;;
1467;SDS011;727;48.892;9.544;2023-07-20T02:07:32;4.07;;;3.67;;
1467;SDS011;727;48.892;9.544;2023-07-20T02:09:59;3.70;;;2.90;;
1467;SDS011;727;48.892;9.544;2023-07-20T02:12:25;4.07;;;2.70;;
1467;SDS011;727;48.892;9.544;2023-07-20T02:14:52;3.63;;;3.07;;
1467;SDS011;727;48.892;9.544;2023-07-20T02:17:19;4.53;;;3.30;;
1467;SDS011;727;48.892;9.544;2023-07-20T02:19:50;11.37;;;4.20;;
1467;SDS011;727;48.892;9.544;2023-07-20T02:22:18;2.63;;;2.30;;
1467;SDS011;727;48.892;9.544;2023-07-20T02:24:46;2.47;;;2.27;;
1467;SDS011;727;48.892;9.544;2023-07-20T02:27:13;6.63;;;3.07;;
1467;SDS011;727;48.892;9.544;2023-07-20T02:29:40;4.03;;;2.70;;
1467;SDS011;727;48.892;9.544;2023-07-20T02:32:07;4.07;;;3.10;;
1467;SDS011;727;48.892;9.544;2023-07-20T02:34:35;3.40;;;2.53;;
1467;SDS011;727;48.892;9.544;2023-07-20T02:37:02;3.13;;;2.60;;
1467;SDS011;727;48.892;9.544;2023-07-20T02:39:29;3.13;;;2.80;;
1467;SDS011;727;48.892;9.544;2023-07-20T02:41:58;4.57;;;2.73;;
1467;SDS011;727;48.892;9.544;2023-07-20T02:44:24;3.77;;;2.43;;
1467;SDS011;727;48.892;9.544;2023-07-20T02:46:51;2.40;;;2.17;;
1467;SDS011;727;48.892;9.544;2023-07-20T02:49:18;3.90;;;2.80;;
1467;SDS011;727;48.892;9.544;2023-07-20T02:51:45;4.60;;;3.13;;
1467;SDS011;727;48.892;9.544;2023-07-20T02:54:12;3.20;;;2.90;;
1467;SDS011;727;48.892;9.544;2023-07-20T02:56:41;2.77;;;2.43;;
1467;SDS011;727;48.892;9.544;2023-07-20T02:59:14;5.80;;;2.73;;
1467;SDS011;727;48.892;9.544;2023-07-20T03:01:40;5.63;;;2.93;;
1467;SDS011;727;48.892;9.544;2023-07-20T03:04:10;2.20;;;2.03;;
1467;SDS011;727;48.892;9.544;2023-07-20T03:06:37;4.93;;;2.27;;
1467;SDS011;727;48.892;9.544;2023-07-20T03:09:03;4.30;;;2.47;;
1467;SDS011;727;48.892;9.544;2023-07-20T03:11:31;3.00;;;2.70;;
1467;SDS011;727;48.892;9.544;2023-07-20T03:13:58;3.10;;;2.80;;
1467;SDS011;727;48.892;9.544;2023-07-20T03:16:27;3.10;;;2.80;;
1467;SDS011;727;48.892;9.544;2023-07-20T03:18:53;3.10;;;2.37;;
1467;SDS011;727;48.892;9.544;2023-07-20T03:21:20;3.50;;;2.73;;
1467;SDS011;727;48.892;9.544;2023-07-20T03:23:50;2.97;;;2.63;;
1467;SDS011;727;48.892;9.544;2023-07-20T03:26:16;6.30;;;3.10;;
1467;SDS011;727;48.892;9.544;2023-07-20T03:28:43;5.93;;;2.50;;
1467;SDS011;727;48.892;9.544;2023-07-20T03:31:10;6.43;;;2.80;;
1467;SDS011;727;48.892;9.544;2023-07-20T03:33:38;5.60;;;3.37;;
1467;SDS011;727;48.892;9.544;2023-07-20T03:36:05;3.60;;;3.00;;
1467;SDS011;727;48.892;9.544;2023-07-20T03:38:31;4.33;;;2.57;;
1467;SDS011;727;48.892;9.544;2023-07-20T03:40:59;3.07;;;2.77;;
1467;SDS011;727;48.892;9.544;2023-07-20T03:43:27;5.43;;;2.60;;
1467;SDS011;727;48.892;9.544;2023-07-20T03:45:54;3.90;;;2.67;;
1467;SDS011;727;48.892;9.544;2023-07-20T03:48:24;4.20;;;3.10;;
1467;SDS011;727;48.892;9.544;2023-07-20T03:50:52;2.40;;;2.20;;
1467;SDS011;727;48.892;9.544;2023-07-20T03:53:20;4.33;;;3.03;;
1467;SDS011;727;48.892;9.544;2023-07-20T03:55:46;3.10;;;2.40;;
1467;SDS011;727;48.892;9.544;2023-07-20T03:58:17;5.70;;;3.00;;
1467;SDS011;727;48.892;9.544;2023-07-20T04:00:46;3.73;;;2.90;;
1467;SDS011;727;48.892;9.544;2023-07-20T04:03:15;3.70;;;3.00;;
1467;SDS011;727;48.892;9.544;2023-07-20T04:05:53;2.93;;;2.73;;
1467;SDS011;727;48.892;9.544;2023-07-20T04:08:20;3.07;;;2.70;;
1467;SDS011;727;48.892;9.544;2023-07-20T04:10:48;3.20;;;2.70;;
1467;SDS011;727;48.892;9.544;2023-07-20T04:13:15;5.40;;;3.90;;
1467;SDS011;727;48.892;9.544;2023-07-20T04:15:42;6.83;;;2.73;;
1467;SDS011;727;48.892;9.544;2023-07-20T04:18:09;3.30;;;3.00;;
1467;SDS011;727;48.892;9.544;2023-07-20T04:20:36;4.50;;;2.67;;
1467;SDS011;727;48.892;9.544;2023-07-20T04:23:04;5.27;;;3.10;;
1467;SDS011;727;48.892;9.544;2023-07-20T04:25:31;7.30;;;2.93;;
1467;SDS011;727;48.892;9.544;2023-07-20T04:28:03;3.97;;;3.17;;
1467;SDS011;727;48.892;9.544;2023-07-20T04:30:33;2.93;;;2.60;;
1467;SDS011;727;48.892;9.544;2023-07-20T04:33:00;5.87;;;2.90;;
1467;SDS011;727;48.892;9.544;2023-07-20T04:35:49;5.20;;;3.30;;
1467;SDS011;727;48.892;9.544;2023-07-20T04:38:18;5.43;;;2.47;;
1467;SDS011;727;48.892;9.544;2023-07-20T04:40:49;4.67;;;2.63;;
1467;SDS011;727;48.892;9.544;2023-07-20T04:43:16;4.27;;;3.00;;
1467;SDS011;727;48.892;9.544;2023-07-20T04:45:44;3.53;;;2.70;;
1467;SDS011;727;48.892;9.544;2023-07-20T04:48:14;4.70;;;3.10;;
1467;SDS011;727;48.892;9.544;2023-07-20T04:50:44;4.23;;;3.20;;
1467;SDS011;727;48.892;9.544;2023-07-20T04:53:11;2.67;;;2.47;;
1467;SDS011;727;48.892;9.544;2023-07-20T04:55:40;4.57;;;2.80;;
1467;SDS011;727;48.892;9.544;2023-07-20T04:58:15;4.40;;;3.97;;
1467;SDS011;727;48.892;9.544;2023-07-20T05:00:42;3.80;;;3.17;;
1467;SDS011;727;48.892;9.544;2023-07-20T05:03:08;6.20;;;4.47;;
1467;SDS011;727;48.892;9.544;2023-07-20T05:05:35;3.97;;;3.20;;
1467;SDS011;727;48.892;9.544;2023-07-20T05:08:03;3.50;;;3.20;;
1467;SDS011;727;48.892;9.544;2023-07-20T05:10:32;4.70;;;3.17;;
1467;SDS011;727;48.892;9.544;2023-07-20T05:13:00;3.33;;;3.03;;
1467;SDS011;727;48.892;9.544;2023-07-20T05:15:27;3.63;;;3.33;;
1467;SDS011;727;48.892;9.544;2023-07-20T05:17:58;3.77;;;3.40;;
1467;SDS011;727;48.892;9.544;2023-07-20T05:20:25;5.37;;;2.90;;
1467;SDS011;727;48.892;9.544;2023-07-20T05:22:52;4.17;;;3.77;;
1467;SDS011;727;48.892;9.544;2023-07-20T05:25:19;3.30;;;3.00;;
1467;SDS011;727;48.892;9.544;2023-07-20T05:27:47;3.27;;;2.97;;
1467;SDS011;727;48.892;9.544;2023-07-20T05:30:16;3.90;;;3.60;;
1467;SDS011;727;48.892;9.544;2023-07-20T05:32:43;7.50;;;3.03;;
1467;SDS011;727;48.892;9.544;2023-07-20T05:35:12;3.57;;;2.73;;
1467;SDS011;727;48.892;9.544;2023-07-20T05:37:40;3.77;;;3.40;;
1467;SDS011;727;48.892;9.544;2023-07-20T05:40:07;3.87;;;3.47;;
1467;SDS011;727;48.892;9.544;2023-07-20T05:42:37;3.60;;;3.30;;
1467;SDS011;727;48.892;9.544;2023-07-20T05:45:04;5.67;;;3.30;;
1467;SDS011;727;48.892;9.544;2023-07-20T05:47:32;6.57;;;4.93;;
1467;SDS011;727;48.892;9.544;2023-07-20T05:49:59;4.53;;;4.10;;
1467;SDS011;727;48.892;9.544;2023-07-20T05:52:26;3.90;;;3.50;;
1467;SDS011;727;48.892;9.544;2023-07-20T05:54:53;5.57;;;3.47;;
1467;SDS011;727;48.892;9.544;2023-07-20T05:57:20;6.23;;;3.10;;
1467;SDS011;727;48.892;9.544;2023-07-20T05:59:46;3.20;;;2.90;;
1467;SDS011;727;48.892;9.544;2023-07-20T06:02:13;5.07;;;3.23;;
1467;SDS011;727;48.892;9.544;2023-07-20T06:04:41;3.93;;;2.87;;
1467;SDS011;727;48.892;9.544;2023-07-20T06:07:08;5.43;;;3.50;;
1467;SDS011;727;48.892;9.544;2023-07-20T06:09:35;2.80;;;2.60;;
1467;SDS011;727;48.892;9.544;2023-07-20T06:12:02;7.20;;;2.40;;
1467;SDS011;727;48.892;9.544;2023-07-20T06:14:29;3.10;;;2.50;;
1467;SDS011;727;48.892;9.544;2023-07-20T06:16:56;3.30;;;2.70;;
1467;SDS011;727;48.892;9.544;2023-07-20T06:19:23;4.27;;;2.27;;
1467;SDS011;727;48.892;9.544;2023-07-20T06:21:51;3.83;;;2.50;;
1467;SDS011;727;48.892;9.544;2023-07-20T06:24:18;5.40;;;2.60;;
1467;SDS011;727;48.892;9.544;2023-07-20T06:26:45;8.57;;;2.80;;
1467;SDS011;727;48.892;9.544;2023-07-20T06:29:12;4.67;;;3.27;;
1467;SDS011;727;48.892;9.544;2023-07-20T06:31:38;3.23;;;2.60;;
1467;SDS011;727;48.892;9.544;2023-07-20T06:34:05;2.43;;;2.23;;
1467;SDS011;727;48.892;9.544;2023-07-20T06:36:32;4.20;;;2.73;;
1467;SDS011;727;48.892;9.544;2023-07-20T06:39:00;5.23;;;2.43;;
1467;SDS011;727;48.892;9.544;2023-07-20T06:41:27;7.17;;;2.90;;
1467;SDS011;727;48.892;9.544;2023-07-20T06:43:54;5.10;;;2.90;;
1467;SDS011;727;48.892;9.544;2023-07-20T06:46:23;4.23;;;2.73;;
1467;SDS011;727;48.892;9.544;2023-07-20T06:48:51;4.00;;;2.40;;
1467;SDS011;727;48.892;9.544;2023-07-20T06:51:18;4.40;;;2.33;;
1467;SDS011;727;48.892;9.544;2023-07-20T06:53:45;3.60;;;2.00;;
1467;SDS011;727;48.892;9.544;2023-07-20T06:56:13;3.63;;;2.50;;
1467;SDS011;727;48.892;9.544;2023-07-20T06:58:40;2.83;;;2.10;;
1467;SDS011;727;48.892;9.544;2023-07-20T07:01:07;2.73;;;2.10;;
1467;SDS011;727;48.892;9.544;2023-07-20T07:03:34;2.23;;;2.03;;
1467;SDS011;727;48.892;9.544;2023-07-20T07:06:01;2.63;;;2.13;;
1467;SDS011;727;48.892;9.544;2023-07-20T07:08:28;4.40;;;2.60;;
1467;SDS011;727;48.892;9.544;2023-07-20T07:10:55;3.03;;;2.23;;
1467;SDS011;727;48.892;9.544;2023-07-20T07:13:23;2.63;;;2.07;;
1467;SDS011;727;48.892;9.544;2023-07-20T07:15:50;3.50;;;2.17;;
1467;SDS011;727;48.892;9.544;2023-07-20T07:18:16;3.30;;;2.13;;
1467;SDS011;727;48.892;9.544;2023-07-20T07:20:49;3.20;;;2.90;;
1467;SDS011;727;48.892;9.544;2023-07-20T07:23:17;3.30;;;2.67;;
1467;SDS011;727;48.892;9.544;2023-07-20T07:25:44;2.60;;;2.40;;
1467;SDS011;727;48.892;9.544;2023-07-20T07:28:10;5.00;;;2.83;;
1467;SDS011;727;48.892;9.544;2023-07-20T07:30:38;4.33;;;2.30;;
1467;SDS011;727;48.892;9.544;2023-07-20T07:33:05;3.90;;;2.67;;
1467;SDS011;727;48.892;9.544;2023-07-20T07:35:32;3.37;;;2.33;;
1467;SDS011;727;48.892;9.544;2023-07-20T07:37:59;2.63;;;2.43;;
1467;SDS011;727;48.892;9.544;2023-07-20T07:40:25;2.93;;;2.30;;
1467;SDS011;727;48.892;9.544;2023-07-20T07:42:52;2.60;;;2.40;;
1467;SDS011;727;48.892;9.544;2023-07-20T07:45:19;3.70;;;1.90;;
1467;SDS011;727;48.892;9.544;2023-07-20T07:47:47;3.20;;;2.20;;
1467;SDS011;727;48.892;9.544;2023-07-20T07:50:14;2.07;;;1.77;;
1467;SDS011;727;48.892;9.544;2023-07-20T07:52:41;3.13;;;2.83;;
1467;SDS011;727;48.892;9.544;2023-07-20T07:55:07;3.07;;;2.77;;
1467;SDS011;727;48.892;9.544;2023-07-20T07:57:34;3.87;;;2.53;;
1467;SDS011;727;48.892;9.544;2023-07-20T08:00:01;4.43;;;2.60;;
1467;SDS011;727;48.892;9.544;2023-07-20T08:02:28;3.13;;;2.83;;
1467;SDS011;727;48.892;9.544;2023-07-20T08:04:56;6.00;;;3.70;;
1467;SDS011;727;48.892;9.544;2023-07-20T08:07:23;3.43;;;3.13;;
1467;SDS011;727;48.892;9.544;2023-07-20T08:09:49;5.10;;;2.50;;
1467;SDS011;727;48.892;9.544;2023-07-20T08:12:16;2.87;;;2.60;;
1467;SDS011;727;48.892;9.544;2023-07-20T08:14:44;4.37;;;2.70;;
1467;SDS011;727;48.892;9.544;2023-07-20T08:17:11;3.50;;;2.40;;
1467;SDS011;727;48.892;9.544;2023-07-20T08:19:37;3.10;;;2.77;;
1467;SDS011;727;48.892;9.544;2023-07-20T08:22:08;9.20;;;3.53;;
1467;SDS011;727;48.892;9.544;2023-07-20T08:24:34;4.80;;;3.50;;
1467;SDS011;727;48.892;9.544;2023-07-20T08:27:05;4.20;;;2.70;;
1467;SDS011;727;48.892;9.544;2023-07-20T08:29:32;3.33;;;3.03;;
1467;SDS011;727;48.892;9.544;2023-07-20T08:31:59;3.20;;;2.50;;
1467;SDS011;727;48.892;9.544;2023-07-20T08:34:25;3.27;;;3.07;;
1467;SDS011;727;48.892;9.544;2023-07-20T08:36:55;3.73;;;2.37;;
1467;SDS011;727;48.892;9.544;2023-07-20T08:39:24;3.67;;;2.40;;
1467;SDS011;727;48.892;9.544;2023-07-20T08:41:50;4.63;;;3.03;;
1467;SDS011;727;48.892;9.544;2023-07-20T08:44:17;3.40;;;2.70;;
1467;SDS011;727;48.892;9.544;2023-07-20T08:46:44;4.40;;;3.00;;
1467;SDS011;727;48.892;9.544;2023-07-20T08:49:13;4.00;;;2.87;;
1467;SDS011;727;48.892;9.544;2023-07-20T08:51:42;2.97;;;2.77;;
1467;SDS011;727;48.892;9.544;2023-07-20T08:54:11;3.00;;;2.70;;
1467;SDS011;727;48.892;9.544;2023-07-20T08:56:40;3.47;;;2.17;;
1467;SDS011;727;48.892;9.544;2023-07-20T08:59:08;2.67;;;2.47;;
1467;SDS011;727;48.892;9.544;2023-07-20T09:01:36;5.20;;;4.30;;
1467;SDS011;727;48.892;9.544;2023-07-20T09:04:05;5.30;;;2.83;;
1467;SDS011;727;48.892;9.544;2023-07-20T09:06:33;3.03;;;2.33;;
1467;SDS011;727;48.892;9.544;2023-07-20T09:09:01;2.33;;;2.17;;
1467;SDS011;727;48.892;9.544;2023-07-20T09:11:28;3.47;;;2.30;;
1467;SDS011;727;48.892;9.544;2023-07-20T09:14:06;5.43;;;2.30;;
1467;SDS011;727;48.892;9.544;2023-07-20T09:16:47;4.50;;;2.57;;
1467;SDS011;727;48.892;9.544;2023-07-20T09:19:15;3.03;;;2.13;;
1467;SDS011;727;48.892;9.544;2023-07-20T09:21:43;2.40;;;2.20;;
1467;SDS011;727;48.892;9.544;2023-07-20T09:24:12;4.43;;;2.13;;
1467;SDS011;727;48.892;9.544;2023-07-20T09:26:43;2.60;;;2.20;;
1467;SDS011;727;48.892;9.544;2023-07-20T09:29:14;4.53;;;2.20;;
1467;SDS011;727;48.892;9.544;2023-07-20T09:31:48;3.80;;;2.47;;
1467;SDS011;727;48.892;9.544;2023-07-20T09:34:26;3.77;;;2.00;;
1467;SDS011;727;48.892;9.544;2023-07-20T09:36:54;6.10;;;2.50;;
1467;SDS011;727;48.892;9.544;2023-07-20T09:39:21;7.63;;;3.30;;
1467;SDS011;727;48.892;9.544;2023-07-20T09:41:48;5.20;;;1.90;;
1467;SDS011;727;48.892;9.544;2023-07-20T09:44:18;3.63;;;2.30;;
1467;SDS011;727;48.892;9.544;2023-07-20T09:46:45;6.53;;;2.10;;
1467;SDS011;727;48.892;9.544;2023-07-20T09:49:13;5.60;;;2.17;;
1467;SDS011;727;48.892;9.544;2023-07-20T09:51:40;5.33;;;1.83;;
1467;SDS011;727;48.892;9.544;2023-07-20T09:54:07;6.80;;;2.57;;
1467;SDS011;727;48.892;9.544;2023-07-20T09:56:35;4.37;;;2.30;;
1467;SDS011;727;48.892;9.544;2023-07-20T09:59:03;2.53;;;1.80;;
1467;SDS011;727;48.892;9.544;2023-07-20T10:01:32;10.23;;;2.50;;
1467;SDS011;727;48.892;9.544;2023-07-20T10:04:02;3.50;;;2.40;;
1467;SDS011;727;48.892;9.544;2023-07-20T10:06:30;2.97;;;2.53;;
1467;SDS011;727;48.892;9.544;2023-07-20T10:09:01;3.50;;;2.50;;
1467;SDS011;727;48.892;9.544;2023-07-20T10:11:29;2.90;;;2.00;;
1467;SDS011;727;48.892;9.544;2023-07-20T10:13:58;1.90;;;1.80;;
1467;SDS011;727;48.892;9.544;2023-07-20T10:16:28;2.37;;;2.17;;
1467;SDS011;727;48.892;9.544;2023-07-20T10:19:02;3.03;;;2.10;;
1467;SDS011;727;48.892;9.544;2023-07-20T10:21:32;3.50;;;1.50;;
1467;SDS011;727;48.892;9.544;2023-07-20T10:24:01;2.13;;;1.80;;
1467;SDS011;727;48.892;9.544;2023-07-20T10:26:30;1.87;;;1.77;;
1467;SDS011;727;48.892;9.544;2023-07-20T10:28:56;4.00;;;2.00;;
1467;SDS011;727;48.892;9.544;2023-07-20T10:31:24;2.20;;;1.53;;
1467;SDS011;727;48.892;9.544;2023-07-20T10:33:56;3.97;;;1.77;;
1467;SDS011;727;48.892;9.544;2023-07-20T10:36:27;4.97;;;2.13;;
1467;SDS011;727;48.892;9.544;2023-07-20T10:38:54;3.57;;;2.03;;
1467;SDS011;727;48.892;9.544;2023-07-20T10:41:23;2.67;;;1.80;;
1467;SDS011;727;48.892;9.544;2023-07-20T10:43:57;3.20;;;2.00;;
1467;SDS011;727;48.892;9.544;2023-07-20T10:46:35;4.30;;;1.50;;
1467;SDS011;727;48.892;9.544;2023-07-20T10:49:10;1.77;;;1.67;;
1467;SDS011;727;48.892;9.544;2023-07-20T10:51:40;2.97;;;1.80;;
1467;SDS011;727;48.892;9.544;2023-07-20T10:54:08;2.50;;;1.80;;
1467;SDS011;727;48.892;9.544;2023-07-20T10:56:35;1.90;;;1.70;;
1467;SDS011;727;48.892;9.544;2023-07-20T10:59:02;1.60;;;1.50;;
1467;SDS011;727;48.892;9.544;2023-07-20T11:01:44;2.17;;;1.43;;
1467;SDS011;727;48.892;9.544;2023-07-20T11:04:14;1.70;;;1.50;;
1467;SDS011;727;48.892;9.544;2023-07-20T11:06:45;3.13;;;2.20;;
1467;SDS011;727;48.892;9.544;2023-07-20T11:09:12;2.10;;;2.00;;
1467;SDS011;727;48.892;9.544;2023-07-20T11:11:40;4.83;;;1.80;;
1467;SDS011;727;48.892;9.544;2023-07-20T11:14:09;1.80;;;1.70;;
1467;SDS011;727;48.892;9.544;2023-07-20T11:16:37;2.87;;;2.03;;
1467;SDS011;727;48.892;9.544;2023-07-20T11:19:06;2.60;;;1.97;;
1467;SDS011;727;48.892;9.544;2023-07-20T11:21:41;2.33;;;1.60;;
1467;SDS011;727;48.892;9.544;2023-07-20T11:24:10;1.43;;;1.33;;
1467;SDS011;727;48.892;9.544;2023-07-20T11:26:45;2.90;;;2.07;;
1467;SDS011;727;48.892;9.544;2023-07-20T11:29:13;5.10;;;2.10;;
1467;SDS011;727;48.892;9.544;2023-07-20T11:31:42;1.77;;;1.43;;
1467;SDS011;727;48.892;9.544;2023-07-20T11:34:10;2.33;;;1.67;;
1467;SDS011;727;48.892;9.544;2023-07-20T11:36:38;1.57;;;1.40;;
1467;SDS011;727;48.892;9.544;2023-07-20T11:39:07;1.67;;;1.53;;
1467;SDS011;727;48.892;9.544;2023-07-20T11:41:37;3.10;;;1.70;;
1467;SDS011;727;48.892;9.544;2023-07-20T11:44:04;1.83;;;1.50;;
1467;SDS011;727;48.892;9.544;2023-07-20T11:46:32;3.93;;;1.33;;
1467;SDS011;727;48.892;9.544;2023-07-20T11:49:00;4.13;;;1.80;;
1467;SDS011;727;48.892;9.544;2023-07-20T11:51:27;1.87;;;1.70;;
1467;SDS011;727;48.892;9.544;2023-07-20T11:53:55;3.60;;;1.63;;
1467;SDS011;727;48.892;9.544;2023-07-20T11:56:24;2.47;;;1.80;;
1467;SDS011;727;48.892;9.544;2023-07-20T11:58:54;5.00;;;1.70;;
1467;SDS011;727;48.892;9.544;2023-07-20T12:01:24;3.37;;;2.27;;
1467;SDS011;727;48.892;9.544;2023-07-20T12:03:53;2.87;;;1.50;;
1467;SDS011;727;48.892;9.544;2023-07-20T12:06:22;2.10;;;1.70;;
1467;SDS011;727;48.892;9.544;2023-07-20T12:08:49;2.77;;;1.77;;
1467;SDS011;727;48.892;9.544;2023-07-20T12:11:31;1.73;;;1.60;;
1467;SDS011;727;48.892;9.544;2023-07-20T12:13:58;3.03;;;1.70;;
1467;SDS011;727;48.892;9.544;2023-07-20T12:16:26;2.50;;;1.90;;
1467;SDS011;727;48.892;9.544;2023-07-20T12:18:58;6.50;;;1.83;;
1467;SDS011;727;48.892;9.544;2023-07-20T12:21:26;3.03;;;1.77;;
1467;SDS011;727;48.892;9.544;2023-07-20T12:23:52;4.80;;;1.97;;
1467;SDS011;727;48.892;9.544;2023-07-20T12:26:22;4.80;;;1.30;;
1467;SDS011;727;48.892;9.544;2023-07-20T12:28:50;4.50;;;1.93;;
1467;SDS011;727;48.892;9.544;2023-07-20T12:31:17;4.20;;;2.07;;
1467;SDS011;727;48.892;9.544;2023-07-20T12:33:46;2.27;;;2.07;;
1467;SDS011;727;48.892;9.544;2023-07-20T12:36:13;3.47;;;1.40;;
1467;SDS011;727;48.892;9.544;2023-07-20T12:38:40;1.37;;;1.27;;
1467;SDS011;727;48.892;9.544;2023-07-20T12:41:09;1.37;;;1.27;;
1467;SDS011;727;48.892;9.544;2023-07-20T12:43:37;6.20;;;2.00;;
1467;SDS011;727;48.892;9.544;2023-07-20T12:46:06;2.60;;;2.03;;
1467;SDS011;727;48.892;9.544;2023-07-20T12:48:33;1.67;;;1.50;;
1467;SDS011;727;48.892;9.544;2023-07-20T12:51:01;3.50;;;1.73;;
1467;SDS011;727;48.892;9.544;2023-07-20T12:53:28;3.90;;;1.70;;
1467;SDS011;727;48.892;9.544;2023-07-20T12:55:55;3.17;;;1.60;;
1467;SDS011;727;48.892;9.544;2023-07-20T12:58:22;4.20;;;1.90;;
1467;SDS011;727;48.892;9.544;2023-07-20T13:00:49;1.83;;;1.37;;
1467;SDS011;727;48.892;9.544;2023-07-20T13:03:17;2.33;;;1.43;;
1467;SDS011;727;48.892;9.544;2023-07-20T13:05:44;6.20;;;2.63;;
1467;SDS011;727;48.892;9.544;2023-07-20T13:08:11;2.17;;;1.83;;
1467;SDS011;727;48.892;9.544;2023-07-20T13:10:38;3.07;;;2.40;;
1467;SDS011;727;48.892;9.544;2023-07-20T13:13:05;3.73;;;1.40;;
1467;SDS011;727;48.892;9.544;2023-07-20T13:15:32;5.57;;;1.83;;
1467;SDS011;727;48.892;9.544;2023-07-20T13:18:07;2.67;;;1.93;;
1467;SDS011;727;48.892;9.544;2023-07-20T13:20:35;2.10;;;1.50;;
1467;SDS011;727;48.892;9.544;2023-07-20T13:23:01;3.57;;;1.70;;
1467;SDS011;727;48.892;9.544;2023-07-20T13:25:28;2.87;;;2.17;;
1467;SDS011;727;48.892;9.544;2023-07-20T13:27:55;2.30;;;1.60;;
1467;SDS011;727;48.892;9.544;2023-07-20T13:30:22;2.17;;;1.60;;
1467;SDS011;727;48.892;9.544;2023-07-20T13:32:49;3.73;;;1.73;;
1467;SDS011;727;48.892;9.544;2023-07-20T13:35:15;1.73;;;1.47;;
1467;SDS011;727;48.892;9.544;2023-07-20T13:37:44;1.70;;;1.50;;
1467;SDS011;727;48.892;9.544;2023-07-20T13:40:11;2.77;;;1.73;;
1467;SDS011;727;48.892;9.544;2023-07-20T13:42:38;1.87;;;1.77;;
1467;SDS011;727;48.892;9.544;2023-07-20T13:45:05;2.90;;;1.87;;
1467;SDS011;727;48.892;9.544;2023-07-20T13:47:33;2.77;;;1.97;;
1467;SDS011;727;48.892;9.544;2023-07-20T13:49:59;2.80;;;2.00;;
1467;SDS011;727;48.892;9.544;2023-07-20T13:52:27;2.90;;;1.50;;
1467;SDS011;727;48.892;9.544;2023-07-20T13:54:55;3.07;;;1.77;;
1467;SDS011;727;48.892;9.544;2023-07-20T13:57:21;7.43;;;1.90;;
1467;SDS011;727;48.892;9.544;2023-07-20T13:59:48;2.83;;;2.23;;
1467;SDS011;727;48.892;9.544;2023-07-20T14:02:15;3.67;;;1.60;;
1467;SDS011;727;48.892;9.544;2023-07-20T14:04:42;2.17;;;1.90;;
1467;SDS011;727;48.892;9.544;2023-07-20T14:07:08;3.70;;;1.87;;
1467;SDS011;727;48.892;9.544;2023-07-20T14:09:36;2.80;;;1.80;;
1467;SDS011;727;48.892;9.544;2023-07-20T14:12:04;1.53;;;1.20;;
1467;SDS011;727;48.892;9.544;2023-07-20T14:14:33;3.23;;;1.93;;
1467;SDS011;727;48.892;9.544;2023-07-20T14:17:00;2.40;;;1.93;;
1467;SDS011;727;48.892;9.544;2023-07-20T14:19:26;2.83;;;1.90;;
1467;SDS011;727;48.892;9.544;2023-07-20T14:21:53;1.77;;;1.50;;
1467;SDS011;727;48.892;9.544;2023-07-20T14:24:20;2.40;;;1.70;;
1467;SDS011;727;48.892;9.544;2023-07-20T14:26:47;2.17;;;1.60;;
1467;SDS011;727;48.892;9.544;2023-07-20T14:29:15;3.07;;;1.70;;
1467;SDS011;727;48.892;9.544;2023-07-20T14:31:43;1.77;;;1.50;;
1467;SDS011;727;48.892;9.544;2023-07-20T14:34:09;4.90;;;1.57;;
1467;SDS011;727;48.892;9.544;2023-07-20T14:36:36;2.07;;;1.67;;
1467;SDS011;727;48.892;9.544;2023-07-20T14:39:03;2.97;;;2.20;;
1467;SDS011;727;48.892;9.544;2023-07-20T14:41:30;1.63;;;1.53;;
1467;SDS011;727;48.892;9.544;2023-07-20T14:43:57;2.10;;;1.70;;
1467;SDS011;727;48.892;9.544;2023-07-20T14:46:25;2.17;;;1.57;;
1467;SDS011;727;48.892;9.544;2023-07-20T14:48:51;3.53;;;1.57;;
1467;SDS011;727;48.892;9.544;2023-07-20T14:51:18;2.13;;;1.97;;
1467;SDS011;727;48.892;9.544;2023-07-20T14:53:45;2.60;;;1.70;;
1467;SDS011;727;48.892;9.544;2023-07-20T14:56:12;2.17;;;1.60;;
1467;SDS011;727;48.892;9.544;2023-07-20T14:58:38;1.60;;;1.50;;
1467;SDS011;727;48.892;9.544;2023-07-20T15:01:05;4.20;;;2.10;;
1467;SDS011;727;48.892;9.544;2023-07-20T15:03:34;3.07;;;1.83;;
1467;SDS011;727;48.892;9.544;2023-07-20T15:06:01;1.80;;;1.70;;
1467;SDS011;727;48.892;9.544;2023-07-20T15:08:28;1.83;;;1.73;;
1467;SDS011;727;48.892;9.544;2023-07-20T15:10:55;1.73;;;1.53;;
1467;SDS011;727;48.892;9.544;2023-07-20T15:13:22;2.10;;;1.70;;
1467;SDS011;727;48.892;9.544;2023-07-20T15:15:49;2.80;;;1.60;;
1467;SDS011;727;48.892;9.544;2023-07-20T15:18:16;2.20;;;1.77;;
1467;SDS011;727;48.892;9.544;2023-07-20T15:20:44;3.13;;;1.87;;
1467;SDS011;727;48.892;9.544;2023-07-20T15:23:12;2.20;;;1.37;;
1467;SDS011;727;48.892;9.544;2023-07-20T15:25:39;1.77;;;1.67;;
1467;SDS011;727;48.892;9.544;2023-07-20T15:28:06;3.93;;;1.63;;
1467;SDS011;727;48.892;9.544;2023-07-20T15:30:33;3.10;;;2.07;;
1467;SDS011;727;48.892;9.544;2023-07-20T15:33:00;1.70;;;1.60;;
1467;SDS011;727;48.892;9.544;2023-07-20T15:35:26;2.10;;;1.90;;
1467;SDS011;727;48.892;9.544;2023-07-20T15:37:54;1.87;;;1.57;;